Time;durP1;ratioP1;P1;durP2;ratioP2;P2;SDS_P1;SDS_P2;PMS_P1;PMS_P2;Temp;Humidity;BMP_temperature;BMP_pressure;BME280_temperature;BME280_humidity;BME280_pressure;Samples;Min_cycle;Max_cycle;Signal;HPM_P1;HPM_P2
2023/04/16 00:01:55;;;;;;;0.47;0.40;;;;;;;8.79;76.09;102388.31;4975334;28;97719;-32
2023/04/16 00:04:20;;;;;;;5.93;0.98;;;;;;;8.78;76.39;102380.28;4973803;28;98894;-32
2023/04/16 00:06:45;;;;;;;0.68;0.20;;;;;;;8.76;78.45;102391.13;4975171;28;96605;-32
2023/04/16 00:09:11;;;;;;;8.05;0.57;;;;;;;8.78;77.94;102393.78;4975138;28;97045;-31
2023/04/16 00:11:36;;;;;;;3.90;0.40;;;;;;;8.77;77.23;102398.31;4973710;28;101309;-32
2023/04/16 00:14:01;;;;;;;2.40;0.90;;;;;;;8.74;78.06;102387.56;4974889;28;104516;-32
2023/04/16 00:16:27;;;;;;;1.00;0.57;;;;;;;8.76;77.83;102391.13;4975445;28;96535;-32
2023/04/16 00:18:52;;;;;;;3.47;1.45;;;;;;;8.73;79.31;102396.63;4975410;28;96739;-32
2023/04/16 00:21:17;;;;;;;0.85;0.57;;;;;;;8.72;79.47;102392.13;4974765;28;98845;-32
2023/04/16 00:23:43;;;;;;;2.75;1.20;;;;;;;8.74;77.92;102395.66;4975364;28;98911;-32
2023/04/16 00:26:08;;;;;;;0.65;0.55;;;;;;;8.73;78.42;102387.63;4975231;28;96604;-32
2023/04/16 00:28:34;;;;;;;0.75;0.50;;;;;;;8.73;78.57;102393.03;4975350;28;96785;-32
2023/04/16 00:31:00;;;;;;;3.63;1.45;;;;;;;8.73;78.67;102393.91;4973814;28;97362;-32
2023/04/16 00:33:25;;;;;;;3.35;0.82;;;;;;;8.73;77.24;102385.81;4974957;28;97952;-32
2023/04/16 00:35:51;;;;;;;3.55;1.00;;;;;;;8.78;79.26;102394.66;4974412;28;96455;-32
2023/04/16 00:38:16;;;;;;;4.13;0.52;;;;;;;8.76;79.51;102385.72;4975051;28;96792;-32
2023/04/16 00:40:42;;;;;;;1.08;0.70;;;;;;;8.73;78.60;102383.09;4974610;28;99561;-32
2023/04/16 00:43:07;;;;;;;6.55;1.00;;;;;;;8.68;81.54;102382.34;4974685;28;99098;-32
2023/04/16 00:45:33;;;;;;;2.25;0.52;;;;;;;8.63;81.28;102378.91;4975061;28;96765;-32
2023/04/16 00:48:00;;;;;;;0.70;0.30;;;;;;;8.64;78.97;102380.66;4975456;28;96760;-32
2023/04/16 00:50:25;;;;;;;0.52;0.35;;;;;;;8.60;81.52;102381.69;4973074;28;101524;-32
2023/04/16 00:52:51;;;;;;;1.20;0.70;;;;;;;8.56;81.08;102382.72;4973254;28;101227;-32
2023/04/16 00:55:17;;;;;;;0.40;0.32;;;;;;;8.57;80.26;102379.06;4974324;28;96521;-32
2023/04/16 00:57:43;;;;;;;0.55;0.30;;;;;;;8.58;82.06;102381.75;4973543;28;96906;-32
2023/04/16 01:00:09;;;;;;;1.20;0.40;;;;;;;8.57;82.71;102381.78;4973275;28;100876;-32
2023/04/16 01:02:35;;;;;;;0.65;0.32;;;;;;;8.55;83.13;102394.44;4974661;28;97864;-32
2023/04/16 01:05:01;;;;;;;2.50;0.52;;;;;;;8.56;82.31;102391.69;4973246;28;96618;-32
2023/04/16 01:07:27;;;;;;;1.65;0.68;;;;;;;8.49;80.35;102388.28;4973509;28;96623;-32
2023/04/16 01:09:52;;;;;;;5.10;0.52;;;;;;;8.50;82.12;102395.44;4974476;28;97936;-32
2023/04/16 01:12:17;;;;;;;1.58;0.45;;;;;;;8.49;81.88;102387.41;4974852;28;97306;-32
2023/04/16 01:14:43;;;;;;;0.95;0.52;;;;;;;8.52;82.21;102398.09;4974847;28;96530;-32
2023/04/16 01:17:08;;;;;;;4.95;0.90;;;;;;;8.53;81.02;102388.19;4975092;28;96747;-32
2023/04/16 01:19:35;;;;;;;0.65;0.30;;;;;;;8.50;82.24;102384.63;4973618;28;97820;-32
2023/04/16 01:22:01;;;;;;;0.47;0.28;;;;;;;8.51;81.62;102385.53;4974152;28;99262;-32
2023/04/16 01:24:27;;;;;;;0.73;0.45;;;;;;;8.57;80.40;102392.56;4973148;28;96591;-32
2023/04/16 01:26:52;;;;;;;0.82;0.25;;;;;;;8.54;81.66;102393.56;4974552;28;96837;-32
2023/04/16 01:29:17;;;;;;;0.38;0.30;;;;;;;8.55;81.61;102395.31;4974206;28;97903;-32
2023/04/16 01:31:43;;;;;;;0.30;0.28;;;;;;;8.56;82.80;102398.91;4973960;28;97365;-32
2023/04/16 01:34:08;;;;;;;0.45;0.40;;;;;;;8.58;81.37;102397.94;4974469;28;96684;-32
2023/04/16 01:36:33;;;;;;;0.93;0.50;;;;;;;8.55;82.89;102397.13;4974956;28;96833;-31
2023/04/16 01:38:59;;;;;;;0.85;0.32;;;;;;;8.53;81.49;102393.59;4974312;28;97280;-32
2023/04/16 01:41:24;;;;;;;0.43;0.28;;;;;;;8.59;81.87;102397.00;4974134;28;97771;-32
2023/04/16 01:43:49;;;;;;;3.13;0.60;;;;;;;8.57;83.27;102403.38;4973833;28;96651;-32
2023/04/16 01:46:30;;;;;;;1.27;0.47;;;;;;;8.56;82.17;102390.81;4975767;28;96791;-32
2023/04/16 01:48:56;;;;;;;0.65;0.35;;;;;;;8.54;82.95;102408.88;4975996;28;100998;-32
2023/04/16 01:51:22;;;;;;;0.88;0.55;;;;;;;8.54;82.87;102404.34;4976156;28;101413;-32
2023/04/16 01:53:49;;;;;;;1.42;0.60;;;;;;;8.53;82.28;102405.25;4976275;28;96570;-32
2023/04/16 01:56:14;;;;;;;1.33;0.57;;;;;;;8.51;82.58;102396.34;4977584;28;96861;-32
2023/04/16 01:58:41;;;;;;;0.73;0.50;;;;;;;8.48;82.68;102402.69;4977136;28;99456;-32
2023/04/16 02:01:09;;;;;;;0.93;0.60;;;;;;;8.50;82.97;102406.25;4977443;28;97805;-32
2023/04/16 02:03:35;;;;;;;3.90;0.68;;;;;;;8.50;81.81;102408.06;4976092;28;96681;-32
2023/04/16 02:06:00;;;;;;;2.25;0.65;;;;;;;8.51;82.94;102407.16;4977455;28;96715;-32
2023/04/16 02:08:26;;;;;;;1.25;0.63;;;;;;;8.55;83.24;102406.13;4976621;28;97816;-32
2023/04/16 02:10:52;;;;;;;1.02;0.63;;;;;;;8.55;82.17;102403.41;4976951;28;99032;-32
2023/04/16 02:13:17;;;;;;;1.45;0.60;;;;;;;8.55;82.42;102414.22;4977101;28;96674;-32
2023/04/16 02:15:47;;;;;;;0.43;0.43;;;;;;;8.53;82.24;102407.97;4977234;28;96796;-32
2023/04/16 02:18:12;;;;;;;1.33;0.57;;;;;;;8.48;83.21;102404.50;4975562;28;100747;-32
2023/04/16 02:20:42;;;;;;;1.38;0.82;;;;;;;8.46;83.71;102407.28;4977003;28;97801;-32
2023/04/16 02:23:09;;;;;;;1.73;0.98;;;;;;;8.45;82.77;102413.59;4975786;28;96766;-32
2023/04/16 02:25:40;;;;;;;5.55;0.85;;;;;;;8.45;83.61;102415.41;4975950;28;96819;-32
2023/04/16 02:28:08;;;;;;;3.53;0.93;;;;;;;8.42;83.85;102420.91;4976684;28;98203;-32
2023/04/16 02:30:38;;;;;;;0.43;0.38;;;;;;;8.36;83.87;102410.22;4974631;28;100953;-32
2023/04/16 02:33:06;;;;;;;4.35;1.08;;;;;;;8.37;83.18;102412.00;4975194;28;96706;-32
2023/04/16 02:35:32;;;;;;;0.85;0.52;;;;;;;8.42;83.02;102410.09;4976620;28;96546;-32
2023/04/16 02:37:58;;;;;;;2.72;0.65;;;;;;;8.43;82.38;102415.44;4975202;28;99921;-32
2023/04/16 02:40:23;;;;;;;0.30;0.30;;;;;;;8.43;83.89;102419.97;4958784;28;101366;-32
2023/04/16 02:42:49;;;;;;;0.55;0.47;;;;;;;8.44;83.97;102419.06;4975162;28;96690;-32
2023/04/16 02:45:14;;;;;;;2.33;0.50;;;;;;;8.38;85.75;102422.75;4976819;28;97194;-32
2023/04/16 02:47:40;;;;;;;1.85;0.55;;;;;;;8.34;84.03;102423.75;4975889;28;99033;-32
2023/04/16 02:50:06;;;;;;;1.17;0.65;;;;;;;8.28;84.62;102429.31;4976879;28;97768;-32
2023/04/16 02:52:31;;;;;;;3.08;0.80;;;;;;;8.29;84.85;102426.59;4976730;28;96554;-32
2023/04/16 02:54:57;;;;;;;1.20;0.65;;;;;;;8.29;85.18;102425.69;4976573;28;96920;-32
2023/04/16 02:57:22;;;;;;;2.05;0.60;;;;;;;8.26;85.61;102426.66;4975006;28;97475;-32
2023/04/16 02:59:47;;;;;;;0.75;0.55;;;;;;;8.26;86.07;102426.66;4976285;28;97807;-31
2023/04/16 03:02:13;;;;;;;3.22;0.68;;;;;;;8.25;85.85;102427.59;4976648;28;96571;-32
2023/04/16 03:04:38;;;;;;;0.60;0.30;;;;;;;8.24;87.05;102419.53;4976369;28;96816;-32
2023/04/16 03:07:03;;;;;;;2.15;0.70;;;;;;;8.22;86.47;102424.09;4976162;28;98173;-31
2023/04/16 03:09:29;;;;;;;3.65;0.90;;;;;;;8.22;86.44;102430.38;4976123;28;97815;-32
2023/04/16 03:11:55;;;;;;;0.93;0.47;;;;;;;8.26;85.67;102432.06;4976333;28;96719;-32
2023/04/16 03:14:20;;;;;;;2.65;0.77;;;;;;;8.26;85.93;102425.78;4976785;28;96742;-32
2023/04/16 03:16:45;;;;;;;0.93;0.50;;;;;;;8.27;85.11;102441.03;4976058;28;98017;-32
2023/04/16 03:19:11;;;;;;;1.13;0.52;;;;;;;8.21;86.60;102436.69;4976130;28;97804;-32
2023/04/16 03:21:36;;;;;;;0.45;0.32;;;;;;;8.22;86.51;102432.19;4975909;28;96576;-32
2023/04/16 03:24:01;;;;;;;1.25;0.77;;;;;;;8.19;88.09;102443.06;4976317;28;96839;-32
2023/04/16 03:26:27;;;;;;;0.60;0.40;;;;;;;8.22;85.78;102440.28;4975866;28;97962;-32
2023/04/16 03:28:52;;;;;;;0.28;0.28;;;;;;;8.23;85.78;102433.97;4975733;28;97784;-32
2023/04/16 03:31:17;;;;;;;2.13;0.73;;;;;;;8.26;86.17;102434.75;4975302;28;96521;-31
2023/04/16 03:33:42;;;;;;;0.50;0.47;;;;;;;8.26;85.54;102433.88;4976276;28;96842;-32
2023/04/16 03:36:08;;;;;;;1.27;0.68;;;;;;;8.21;85.89;102441.22;4975432;28;99370;-32
2023/04/16 03:38:34;;;;;;;0.77;0.52;;;;;;;8.19;86.14;102437.66;4976295;28;97374;-32
2023/04/16 03:40:59;;;;;;;1.23;0.73;;;;;;;8.21;88.51;102435.81;4975996;28;96473;-32
2023/04/16 03:43:25;;;;;;;3.70;0.88;;;;;;;8.18;87.33;102433.22;4975849;28;96809;-32
2023/04/16 03:45:50;;;;;;;0.70;0.55;;;;;;;8.22;87.47;102424.09;4974633;28;99207;-32
2023/04/16 03:48:16;;;;;;;1.15;0.75;;;;;;;8.22;87.46;102426.78;4975611;28;97567;-32
2023/04/16 03:50:45;;;;;;;5.60;0.82;;;;;;;8.22;87.65;102434.88;4975735;28;96617;-32
2023/04/16 03:53:10;;;;;;;2.05;0.75;;;;;;;8.19;88.12;102429.56;4975679;28;96751;-32
2023/04/16 03:55:36;;;;;;;5.13;0.85;;;;;;;8.18;88.51;102435.91;4975376;28;104184;-32
2023/04/16 03:58:02;;;;;;;6.63;0.88;;;;;;;8.16;88.94;102438.63;4975186;28;99207;-31
2023/04/16 04:00:28;;;;;;;1.30;0.57;;;;;;;8.17;87.99;102426.91;4975592;28;96533;-32
2023/04/16 04:02:54;;;;;;;0.85;0.35;;;;;;;8.22;87.08;102432.19;4974561;28;96884;-32
2023/04/16 04:05:19;;;;;;;0.85;0.60;;;;;;;8.22;87.05;102432.19;4975511;28;97409;-32
2023/04/16 04:07:44;;;;;;;2.40;1.13;;;;;;;8.18;87.38;102433.22;4975390;28;97820;-32
2023/04/16 04:10:10;;;;;;;2.58;0.80;;;;;;;8.22;86.95;102438.50;4974152;28;97045;-32
2023/04/16 04:12:35;;;;;;;2.08;1.02;;;;;;;8.22;89.04;102434.88;4975486;28;96821;-32
2023/04/16 04:15:00;;;;;;;2.20;1.05;;;;;;;8.21;88.50;102434.00;4974913;28;99215;-32
2023/04/16 04:17:26;;;;;;;1.77;0.68;;;;;;;8.21;88.67;102438.50;4975254;28;98322;-32
2023/04/16 04:19:52;;;;;;;2.50;0.70;;;;;;;8.17;87.36;102440.38;4975221;28;96535;-32
2023/04/16 04:22:18;;;;;;;1.52;0.52;;;;;;;8.22;86.78;102437.56;4975376;28;96815;-32
2023/04/16 04:24:43;;;;;;;4.18;1.15;;;;;;;8.17;88.75;102434.13;4975071;28;97481;-32
2023/04/16 04:27:08;;;;;;;0.57;0.40;;;;;;;8.16;88.69;102438.63;4975232;28;97816;-32
2023/04/16 04:29:34;;;;;;;1.58;0.80;;;;;;;8.16;87.88;102441.34;4975217;28;96485;-32
2023/04/16 04:31:59;;;;;;;0.75;0.75;;;;;;;8.17;87.67;102439.50;4975010;28;96897;-32
2023/04/16 04:34:25;;;;;;;2.53;0.73;;;;;;;8.22;87.31;102437.56;4974281;28;99338;-32
2023/04/16 04:36:50;;;;;;;0.82;0.50;;;;;;;8.23;87.36;102439.38;4975151;28;97304;-32
2023/04/16 04:39:15;;;;;;;1.95;0.43;;;;;;;8.19;88.84;102438.53;4975183;28;96487;-32
2023/04/16 04:41:41;;;;;;;1.88;0.82;;;;;;;8.21;87.08;102435.81;4975217;28;96749;-32
2023/04/16 04:44:06;;;;;;;1.25;0.50;;;;;;;8.22;87.09;102448.38;4974676;28;99011;-32
2023/04/16 04:46:31;;;;;;;1.38;0.68;;;;;;;8.20;87.49;102445.75;4974505;28;97835;-32
2023/04/16 04:48:57;;;;;;;3.15;0.55;;;;;;;8.23;87.98;102450.16;4975449;28;96591;-32
2023/04/16 04:51:22;;;;;;;0.52;0.45;;;;;;;8.22;88.57;102453.78;4975590;28;96916;-32
2023/04/16 04:53:47;;;;;;;4.78;0.65;;;;;;;8.22;88.48;102459.16;4974497;28;99338;-32
2023/04/16 04:56:13;;;;;;;0.98;0.50;;;;;;;8.16;87.17;102443.16;4974152;28;106020;-32
2023/04/16 04:58:38;;;;;;;0.82;0.32;;;;;;;8.17;88.10;102448.50;4974350;28;96686;-32
2023/04/16 05:01:03;;;;;;;1.35;0.40;;;;;;;8.16;88.56;102449.44;4975333;28;96719;-32
2023/04/16 05:03:29;;;;;;;0.15;0.15;;;;;;;8.22;88.83;102465.47;4974623;28;98049;-32
2023/04/16 05:05:54;;;;;;;0.70;0.28;;;;;;;8.21;88.67;102457.41;4974487;28;97762;-31
2023/04/16 05:08:19;;;;;;;0.82;0.45;;;;;;;8.22;88.44;102468.19;4975082;28;96808;-32
2023/04/16 05:10:45;;;;;;;1.05;0.60;;;;;;;8.23;87.74;102460.97;4974569;28;97121;-32
2023/04/16 05:13:10;;;;;;;4.57;0.68;;;;;;;8.19;88.26;102456.56;4974270;28;99572;-32
2023/04/16 05:15:36;;;;;;;1.65;0.50;;;;;;;8.23;87.78;102471.75;4974660;28;99214;-32
2023/04/16 05:18:02;;;;;;;0.75;0.55;;;;;;;8.20;87.96;102475.44;4973251;28;96516;-32
2023/04/16 05:20:27;;;;;;;0.35;0.30;;;;;;;8.21;89.05;102473.59;4975185;28;96768;-31
2023/04/16 05:22:54;;;;;;;0.65;0.45;;;;;;;8.19;89.00;102473.63;4977100;28;99204;-31
2023/04/16 05:25:20;;;;;;;1.52;0.80;;;;;;;8.22;87.42;102468.19;4976143;28;100847;-32
2023/04/16 05:27:45;;;;;;;1.48;0.47;;;;;;;8.20;89.90;102474.50;4978182;28;96536;-32
2023/04/16 05:30:11;;;;;;;1.42;0.50;;;;;;;8.19;88.63;102470.94;4977546;28;96729;-32
2023/04/16 05:32:39;;;;;;;0.77;0.43;;;;;;;8.21;88.04;102469.09;4977822;28;97510;-32
2023/04/16 05:35:05;;;;;;;4.20;0.68;;;;;;;8.24;88.62;102473.53;4976220;28;100895;-32
2023/04/16 05:37:30;;;;;;;1.10;0.70;;;;;;;8.24;88.92;102478.91;4977769;28;96672;-31
2023/04/16 05:39:55;;;;;;;2.95;0.60;;;;;;;8.22;88.77;102486.16;4978167;28;96858;-31
2023/04/16 05:42:21;;;;;;;1.42;0.80;;;;;;;8.20;89.69;102477.22;4977554;28;97945;-32
2023/04/16 05:44:46;;;;;;;1.73;0.57;;;;;;;8.21;89.25;102481.72;4977667;28;97987;-32
2023/04/16 05:47:11;;;;;;;1.00;0.52;;;;;;;8.20;89.82;102485.31;4977046;28;96568;-32
2023/04/16 05:49:37;;;;;;;3.58;0.60;;;;;;;8.18;89.85;102488.06;4977902;28;96777;-32
2023/04/16 05:52:03;;;;;;;2.00;1.02;;;;;;;8.15;88.46;102484.53;4977422;28;98037;-32
2023/04/16 05:54:28;;;;;;;0.38;0.28;;;;;;;8.14;89.57;102483.66;4975594;28;101088;-32
2023/04/16 05:56:54;;;;;;;4.72;0.68;;;;;;;8.14;89.26;102488.19;4977590;28;96589;-32
2023/04/16 05:59:19;;;;;;;1.20;0.60;;;;;;;8.13;91.33;102489.09;4977764;28;96776;-32
2023/04/16 06:01:45;;;;;;;2.13;0.85;;;;;;;8.11;90.35;102486.44;4977058;28;98852;-32
2023/04/16 06:04:10;;;;;;;1.35;0.70;;;;;;;8.16;89.64;102495.31;4977439;28;99315;-32
2023/04/16 06:06:36;;;;;;;1.20;0.70;;;;;;;8.21;88.95;102492.50;4977387;28;96654;-32
2023/04/16 06:09:02;;;;;;;2.65;1.00;;;;;;;8.25;89.68;102496.91;4975808;28;96744;-32
2023/04/16 06:11:29;;;;;;;2.85;1.05;;;;;;;8.25;89.33;102500.50;4975169;28;100952;-32
2023/04/16 06:13:54;;;;;;;1.00;0.63;;;;;;;8.26;88.96;102506.75;4975497;28;100733;-32
2023/04/16 06:16:19;;;;;;;3.17;0.75;;;;;;;8.28;89.57;102496.81;4977219;28;96661;-32
2023/04/16 06:18:45;;;;;;;3.42;0.82;;;;;;;8.25;90.16;102497.78;4975915;28;96871;-32
2023/04/16 06:21:10;;;;;;;0.93;0.70;;;;;;;8.24;90.78;102504.09;4976997;28;98088;-32
2023/04/16 06:23:35;;;;;;;2.15;1.00;;;;;;;8.25;90.14;102500.50;4976811;28;97800;-32
2023/04/16 06:26:01;;;;;;;1.70;0.75;;;;;;;8.23;90.32;102505.03;4977328;28;96573;-32
2023/04/16 06:28:26;;;;;;;1.30;0.52;;;;;;;8.23;90.45;102506.84;4977418;28;96899;-32
2023/04/16 06:30:51;;;;;;;1.30;0.77;;;;;;;8.23;91.21;102506.84;4976265;28;97925;-32
2023/04/16 06:33:17;;;;;;;1.20;0.57;;;;;;;8.24;90.29;102506.78;4975924;28;97858;-32
2023/04/16 06:35:42;;;;;;;1.25;0.90;;;;;;;8.27;91.32;102511.22;4975289;28;96529;-32
2023/04/16 06:38:07;;;;;;;0.95;0.57;;;;;;;8.22;91.51;102508.66;4975621;28;96834;-32
2023/04/16 06:40:33;;;;;;;0.80;0.57;;;;;;;8.24;90.67;102516.72;4976674;28;97841;-32
2023/04/16 06:42:58;;;;;;;0.63;0.50;;;;;;;8.25;90.02;102522.09;4976628;28;98262;-32
2023/04/16 06:45:24;;;;;;;1.00;0.60;;;;;;;8.26;90.30;102521.16;4975421;28;96488;-32
2023/04/16 06:47:49;;;;;;;2.15;0.85;;;;;;;8.23;90.54;102521.22;4976708;28;96869;-32
2023/04/16 06:50:15;;;;;;;0.57;0.52;;;;;;;8.25;91.20;102522.09;4976187;28;99876;-32
2023/04/16 06:52:40;;;;;;;1.90;0.82;;;;;;;8.28;91.21;102522.00;4976778;28;97488;-32
2023/04/16 06:55:08;;;;;;;6.95;1.60;;;;;;;8.27;91.15;102531.03;4976746;28;96500;-32
2023/04/16 06:57:34;;;;;;;1.35;0.50;;;;;;;8.28;90.10;102531.91;4975294;28;96924;-32
2023/04/16 07:00:00;;;;;;;0.77;0.52;;;;;;;8.31;90.29;102534.53;4976048;28;97383;-31
2023/04/16 07:02:25;;;;;;;1.25;0.77;;;;;;;8.32;90.57;102522.81;4975947;28;98775;-32
2023/04/16 07:04:51;;;;;;;1.17;0.77;;;;;;;8.33;91.29;102531.81;4976567;28;96574;-32
2023/04/16 07:07:17;;;;;;;1.23;0.80;;;;;;;8.36;90.90;102532.59;4976160;28;96882;-32
2023/04/16 07:09:42;;;;;;;2.65;1.20;;;;;;;8.34;91.01;102530.88;4976096;28;97545;-32
2023/04/16 07:12:07;;;;;;;1.38;0.88;;;;;;;8.38;90.64;102532.56;4976007;28;98986;-32
2023/04/16 07:14:33;;;;;;;1.23;0.80;;;;;;;8.38;90.66;102528.06;4976393;28;96630;-32
2023/04/16 07:16:58;;;;;;;2.22;0.43;;;;;;;8.39;90.93;102535.25;4976953;28;96923;-32
2023/04/16 07:19:24;;;;;;;4.40;0.90;;;;;;;8.37;91.96;102541.59;4975745;28;99393;-31
2023/04/16 07:21:50;;;;;;;1.48;0.90;;;;;;;8.36;91.63;102540.69;4975778;28;99283;-32
2023/04/16 07:24:16;;;;;;;1.67;0.70;;;;;;;8.36;91.47;102542.50;4975655;28;96450;-32
2023/04/16 07:26:41;;;;;;;1.02;0.73;;;;;;;8.37;91.62;102542.50;4976085;28;96714;-32
2023/04/16 07:29:06;;;;;;;3.67;0.95;;;;;;;8.41;91.35;102554.13;4975567;28;99629;-32
2023/04/16 07:31:32;;;;;;;0.75;0.55;;;;;;;8.41;91.71;102549.59;4974792;28;97927;-33
2023/04/16 07:33:57;;;;;;;1.15;0.80;;;;;;;8.42;91.53;102548.69;4974369;28;96967;-32
2023/04/16 07:36:23;;;;;;;1.05;0.70;;;;;;;8.39;92.05;102543.34;4974356;28;97293;-32
2023/04/16 07:38:48;;;;;;;1.40;0.93;;;;;;;8.39;90.96;102539.72;4975050;28;99404;-32
2023/04/16 07:41:14;;;;;;;1.95;0.95;;;;;;;8.39;91.93;102548.75;4976156;28;97843;-32
2023/04/16 07:43:39;;;;;;;1.75;0.80;;;;;;;8.41;92.15;102546.91;4975922;28;96585;-32
2023/04/16 07:46:04;;;;;;;1.63;0.82;;;;;;;8.47;90.80;102553.97;4975377;28;96822;-32
2023/04/16 07:48:30;;;;;;;3.80;1.23;;;;;;;8.46;91.75;102553.09;4974883;28;98828;-32
2023/04/16 07:50:55;;;;;;;1.95;0.75;;;;;;;8.49;92.45;102557.53;4973624;28;97433;-32
2023/04/16 07:53:21;;;;;;;4.25;1.30;;;;;;;8.49;90.94;102558.41;4973418;28;97245;-33
2023/04/16 07:55:46;;;;;;;0.82;0.73;;;;;;;8.50;91.28;102554.78;4973436;28;97122;-32
2023/04/16 07:58:12;;;;;;;2.88;1.00;;;;;;;8.50;91.01;102554.78;4972837;28;99203;-33
2023/04/16 08:00:38;;;;;;;2.80;0.90;;;;;;;8.54;90.10;102561.00;4972663;28;99201;-33
2023/04/16 08:03:03;;;;;;;1.15;0.90;;;;;;;8.52;91.89;102556.56;4971805;28;97301;-32
2023/04/16 08:05:29;;;;;;;2.30;1.17;;;;;;;8.55;90.71;102562.75;4974884;28;97077;-31
2023/04/16 08:07:54;;;;;;;1.73;1.05;;;;;;;8.59;89.92;102560.88;4975116;28;99306;-32
2023/04/16 08:10:20;;;;;;;2.20;0.85;;;;;;;8.65;91.19;102568.81;4974960;28;99599;-32
2023/04/16 08:12:45;;;;;;;0.80;0.70;;;;;;;8.62;91.08;102569.78;4975124;28;96536;-32
2023/04/16 08:15:11;;;;;;;5.95;1.02;;;;;;;8.67;89.53;102573.25;4975171;28;96713;-32
2023/04/16 08:17:36;;;;;;;5.47;1.10;;;;;;;8.68;90.36;102571.47;4974747;28;98065;-31
2023/04/16 08:20:02;;;;;;;1.90;0.75;;;;;;;8.74;90.48;102583.91;4973609;28;99127;-32
2023/04/16 08:22:27;;;;;;;1.55;0.80;;;;;;;8.72;90.35;102573.13;4973475;28;96700;-33
2023/04/16 08:24:53;;;;;;;1.77;1.08;;;;;;;8.76;90.24;102582.94;4972920;28;96778;-34
2023/04/16 08:27:18;;;;;;;4.25;0.82;;;;;;;8.80;91.13;102581.94;4973347;28;99840;-32
2023/04/16 08:29:43;;;;;;;1.20;0.70;;;;;;;8.83;90.39;102586.38;4974304;28;97315;-32
2023/04/16 08:32:09;;;;;;;1.80;1.17;;;;;;;8.86;91.08;102594.38;4974118;28;96878;-32
2023/04/16 08:34:35;;;;;;;5.65;1.38;;;;;;;8.84;91.37;102582.72;4974202;28;96785;-32
2023/04/16 08:37:01;;;;;;;3.90;1.40;;;;;;;8.88;90.06;102589.84;4972099;28;101660;-32
2023/04/16 08:39:27;;;;;;;2.08;1.50;;;;;;;8.89;90.26;102592.50;4975284;28;97466;-32
2023/04/16 08:41:53;;;;;;;2.17;1.40;;;;;;;8.87;89.95;102590.78;4973907;28;96617;-32
2023/04/16 08:44:24;;;;;;;4.95;1.13;;;;;;;8.89;89.33;102594.28;4971627;28;97094;-33
2023/04/16 08:46:56;;;;;;;2.63;1.60;;;;;;;8.89;90.83;102602.41;4970619;28;100925;-34
2023/04/16 08:49:23;;;;;;;1.55;1.00;;;;;;;8.89;90.62;102603.31;4970872;28;101204;-33
2023/04/16 08:51:51;;;;;;;1.42;0.98;;;;;;;8.92;90.59;102596.94;4971170;28;97093;-33
2023/04/16 08:54:20;;;;;;;1.63;1.15;;;;;;;8.98;89.61;102604.00;4971531;28;96845;-33
2023/04/16 08:56:47;;;;;;;2.03;1.30;;;;;;;8.98;89.77;102601.28;4970124;28;98419;-32
2023/04/16 08:59:13;;;;;;;2.47;1.30;;;;;;;8.99;89.68;102606.66;4972400;28;100982;-32
2023/04/16 09:01:40;;;;;;;4.07;1.50;;;;;;;9.03;89.55;102610.16;4974619;28;96625;-32
2023/04/16 09:04:06;;;;;;;3.42;1.63;;;;;;;9.04;89.86;102618.22;4973342;28;96847;-32
2023/04/16 09:06:33;;;;;;;2.60;1.20;;;;;;;9.00;90.58;102613.81;4974418;28;97447;-32
2023/04/16 09:09:03;;;;;;;1.63;0.93;;;;;;;9.02;89.99;102624.59;4973184;28;100763;-32
2023/04/16 09:11:29;;;;;;;2.70;0.80;;;;;;;9.02;90.34;102619.19;4973495;28;96563;-32
2023/04/16 09:13:55;;;;;;;1.73;1.20;;;;;;;9.01;89.82;102614.72;4974676;28;96812;-32
2023/04/16 09:16:20;;;;;;;2.10;1.05;;;;;;;9.06;89.57;102621.78;4973080;28;100976;-33
2023/04/16 09:18:46;;;;;;;2.30;0.93;;;;;;;9.08;89.95;102629.84;4974866;28;97193;-32
2023/04/16 09:21:12;;;;;;;1.92;0.88;;;;;;;9.09;89.65;102615.41;4973151;28;96612;-32
2023/04/16 09:23:38;;;;;;;1.17;1.08;;;;;;;9.10;89.95;102617.16;4973305;28;96804;-32
2023/04/16 09:26:04;;;;;;;1.75;1.13;;;;;;;9.10;89.53;102623.47;4973924;28;98049;-32
2023/04/16 09:28:50;;;;;;;1.90;0.85;;;;;;;9.12;90.80;102631.53;4972988;28;101299;-32
2023/04/16 09:31:17;;;;;;;1.95;1.10;;;;;;;9.14;89.60;102624.28;4972625;28;96542;-32
2023/04/16 09:34:14;;;;;;;3.13;1.13;;;;;;;9.12;91.17;102629.72;4974726;28;96621;-32
2023/04/16 09:36:40;;;;;;;1.45;1.10;;;;;;;9.11;89.25;102627.06;4974021;28;97656;-31
2023/04/16 09:39:05;;;;;;;2.25;1.35;;;;;;;9.16;89.63;102629.66;4973945;28;99011;-32
2023/04/16 09:41:34;;;;;;;1.38;0.75;;;;;;;9.17;91.11;102632.28;4974076;28;97855;-32
2023/04/16 09:44:03;;;;;;;2.78;1.13;;;;;;;9.24;90.07;102642.00;4973442;28;96835;-32
2023/04/16 09:46:41;;;;;;;3.78;1.10;;;;;;;9.25;89.25;102634.81;4973779;28;99792;-32
2023/04/16 09:49:13;;;;;;;2.85;1.10;;;;;;;9.26;89.70;102642.88;4972709;28;100755;-31
2023/04/16 09:51:45;;;;;;;1.75;1.08;;;;;;;9.22;89.79;102643.88;4972444;28;96763;-32
2023/04/16 09:54:10;;;;;;;2.30;1.27;;;;;;;9.23;89.13;102642.06;4972899;28;96806;-32
2023/04/16 09:56:41;;;;;;;3.83;1.17;;;;;;;9.25;88.87;102643.81;4974000;28;99299;-32
2023/04/16 09:59:07;;;;;;;5.20;1.15;;;;;;;9.27;89.08;102647.38;4973924;28;99231;-32
2023/04/16 10:01:34;;;;;;;1.98;1.33;;;;;;;9.30;88.20;102646.38;4972842;28;96574;-32
2023/04/16 10:04:00;;;;;;;3.42;1.50;;;;;;;9.31;88.49;102646.31;4973263;28;96885;-32
2023/04/16 10:06:28;;;;;;;1.60;1.30;;;;;;;9.32;89.71;102644.53;4973830;28;97882;-32
2023/04/16 10:08:56;;;;;;;2.33;1.27;;;;;;;9.35;89.24;102647.16;4975110;28;101163;-32
2023/04/16 10:11:22;;;;;;;2.47;1.17;;;;;;;9.39;88.95;102653.34;4977215;28;96493;-32
2023/04/16 10:13:48;;;;;;;6.38;1.30;;;;;;;9.40;88.94;102657.84;4977457;28;96469;-32
2023/04/16 10:16:14;;;;;;;3.30;1.60;;;;;;;9.39;88.58;102653.34;4975127;28;101240;-32
2023/04/16 10:18:43;;;;;;;5.55;1.88;;;;;;;9.46;88.22;102663.97;4977040;28;97322;-32
2023/04/16 10:21:12;;;;;;;1.55;1.00;;;;;;;9.46;88.89;102663.97;4975569;28;96741;-32
2023/04/16 10:23:39;;;;;;;5.75;1.35;;;;;;;9.51;88.75;102666.53;4975755;28;96873;-31
2023/04/16 10:26:05;;;;;;;2.40;1.55;;;;;;;9.52;87.94;102671.03;4975348;28;100027;-32
2023/04/16 10:28:34;;;;;;;3.00;1.83;;;;;;;9.51;88.54;102667.44;4975423;28;101194;-32
2023/04/16 10:31:02;;;;;;;1.92;1.35;;;;;;;9.50;88.48;102665.63;4974726;28;96578;-32
2023/04/16 10:33:30;;;;;;;3.70;2.15;;;;;;;9.48;88.28;102672.03;4976014;28;96632;-33
2023/04/16 10:36:25;;;;;;;3.75;1.60;;;;;;;9.47;88.11;102668.44;4975126;28;101234;-32
2023/04/16 10:38:51;;;;;;;2.60;1.27;;;;;;;9.45;88.86;102669.41;4976880;28;97848;-32
2023/04/16 10:41:19;;;;;;;2.55;1.52;;;;;;;9.42;89.65;102667.69;4974924;28;96712;-32
2023/04/16 10:43:48;;;;;;;2.45;1.55;;;;;;;9.42;89.15;102669.50;4975401;28;96789;-32
2023/04/16 10:46:23;;;;;;;3.03;1.73;;;;;;;9.45;89.17;102678.41;4974510;28;100963;-32
2023/04/16 10:48:52;;;;;;;1.38;0.93;;;;;;;9.43;89.36;102677.56;4976443;28;98819;-32
2023/04/16 10:51:28;;;;;;;3.75;1.90;;;;;;;9.41;89.27;102676.72;4975353;28;96768;-32
2023/04/16 10:54:01;;;;;;;4.75;1.58;;;;;;;9.39;89.87;102677.69;4975210;28;96855;-32
2023/04/16 10:56:27;;;;;;;3.25;1.95;;;;;;;9.43;89.05;102677.56;4974679;28;101083;-32
2023/04/16 10:58:54;;;;;;;3.42;1.63;;;;;;;9.43;88.65;102669.44;4976483;28;99259;-32
2023/04/16 11:01:32;;;;;;;6.25;2.15;;;;;;;9.47;88.43;102673.84;4975038;28;96720;-32
2023/04/16 11:04:00;;;;;;;5.50;1.73;;;;;;;9.45;88.80;102674.81;4976510;28;96731;-32
2023/04/16 11:06:27;;;;;;;2.58;1.83;;;;;;;9.49;88.32;102679.22;4974285;28;100933;-32
2023/04/16 11:08:53;;;;;;;4.47;1.88;;;;;;;9.45;88.46;102681.13;4974846;28;101348;-32
2023/04/16 11:11:19;;;;;;;4.35;2.10;;;;;;;9.45;88.57;102678.41;4976148;28;96580;-32
2023/04/16 11:13:45;;;;;;;5.47;2.40;;;;;;;9.44;88.27;102676.66;4974865;28;97557;-32
2023/04/16 11:16:12;;;;;;;3.95;1.60;;;;;;;9.44;88.07;102673.03;4976097;28;97943;-32
2023/04/16 11:18:41;;;;;;;2.88;1.50;;;;;;;9.44;88.49;102663.13;4974286;28;101004;-32
2023/04/16 11:21:09;;;;;;;3.17;1.85;;;;;;;9.51;88.60;102677.34;4974910;28;96628;-31
2023/04/16 11:23:51;;;;;;;2.95;1.55;;;;;;;9.52;87.72;102679.13;4975205;28;96847;-32
2023/04/16 11:26:28;;;;;;;4.75;2.00;;;;;;;9.50;88.49;102681.88;4974471;28;100856;-32
2023/04/16 11:28:58;;;;;;;1.90;1.30;;;;;;;9.55;88.60;102676.34;4975672;28;99577;-32